NCAR-RAP Real-Time Weather Data

Output produced by METARs form (23 February 2020  02:36 UTC)
found at http://weather.rap.ucar.edu/surface/
 
KLBF 230153Z AUTO 00000KT 10SM CLR 01/M09 A2996 RMK AO2 SLP174 T00111089
KLBF 230053Z AUTO 14003KT 10SM CLR 06/M09 A2994 RMK AO2 SLP163 T00611094